createdAt,value
2022-09-01T00:00:19.090Z,32.46
2022-09-01T00:02:50.884Z,32.47
2022-09-01T00:05:19.286Z,32.48
2022-09-01T00:07:50.341Z,32.50
2022-09-01T00:10:22.441Z,32.45
2022-09-01T00:17:41.882Z,32.52
2022-09-01T00:20:10.671Z,32.53
2022-09-01T00:22:39.207Z,32.50
2022-09-01T00:25:09.304Z,32.49
2022-09-01T00:27:41.059Z,32.52
2022-09-01T00:30:12.265Z,32.53
2022-09-01T00:32:48.445Z,32.45
2022-09-01T00:37:57.402Z,32.28
2022-09-01T00:40:29.353Z,32.26
2022-09-01T00:43:00.600Z,32.24
2022-09-01T00:45:30.834Z,32.22
2022-09-01T00:48:05.980Z,32.12
2022-09-01T00:50:35.417Z,31.88
2022-09-01T00:53:08.144Z,31.75
2022-09-01T01:00:41.852Z,31.70
2022-09-01T01:03:11.855Z,31.62
2022-09-01T01:05:48.125Z,31.57
2022-09-01T01:08:21.680Z,31.54
2022-09-01T01:10:51.631Z,31.57
2022-09-01T01:13:21.155Z,31.60
2022-09-01T01:15:49.214Z,31.58
2022-09-01T01:22:10.112Z,31.65
2022-09-01T01:24:39.523Z,31.69
2022-09-01T01:27:08.546Z,31.75
2022-09-01T01:29:41.305Z,31.78
2022-09-01T01:32:12.509Z,31.75
2022-09-01T01:34:42.456Z,31.76
2022-09-01T01:37:14.077Z,31.72
2022-09-01T01:43:32.320Z,31.74
2022-09-01T01:46:02.835Z,31.78
2022-09-01T01:48:42.612Z,31.78
2022-09-01T01:51:13.914Z,31.71
2022-09-01T01:53:41.717Z,31.68
2022-09-01T01:56:10.943Z,31.68
2022-09-01T01:58:40.847Z,31.68
2022-09-01T02:01:13.650Z,31.67
2022-09-01T02:08:49.713Z,31.63
2022-09-01T02:11:19.682Z,31.65
2022-09-01T02:13:50.019Z,31.64
2022-09-01T02:16:21.045Z,31.63
2022-09-01T02:18:51.145Z,31.60
2022-09-01T02:21:21.054Z,31.53
2022-09-01T02:24:02.284Z,31.49
2022-09-01T02:29:29.156Z,31.35
2022-09-01T02:31:58.651Z,31.19
2022-09-01T02:34:28.856Z,31.06
2022-09-01T02:36:59.379Z,30.96
2022-09-01T02:39:30.113Z,30.87
2022-09-01T02:42:01.280Z,30.81
2022-09-01T02:44:30.999Z,30.76
2022-09-01T02:47:00.278Z,30.72
2022-09-01T02:54:39.499Z,30.40
2022-09-01T02:57:08.964Z,30.30
2022-09-01T02:59:43.168Z,30.28
2022-09-01T03:02:11.277Z,30.28
2022-09-01T03:04:41.715Z,30.21
2022-09-01T03:07:09.616Z,30.15
2022-09-01T03:09:41.509Z,30.19
2022-09-01T03:15:51.870Z,30.30
2022-09-01T03:18:19.608Z,30.35
2022-09-01T03:20:50.837Z,30.32
2022-09-01T03:23:21.393Z,30.31
2022-09-01T03:25:49.141Z,30.29
2022-09-01T03:28:18.735Z,30.27
2022-09-01T03:30:50.678Z,30.25
2022-09-01T03:33:21.898Z,30.20
2022-09-01T03:41:05.093Z,30.18
2022-09-01T03:43:35.854Z,30.18
2022-09-01T03:46:05.095Z,30.20
2022-09-01T03:48:34.339Z,30.23
2022-09-01T03:51:05.020Z,30.23
2022-09-01T03:53:38.540Z,30.14
2022-09-01T03:56:08.943Z,30.15
2022-09-01T04:03:48.702Z,30.16
2022-09-01T04:06:20.938Z,30.16
2022-09-01T04:08:49.982Z,30.18
2022-09-01T04:11:23.424Z,30.16
2022-09-01T04:13:52.463Z,30.08
2022-09-01T04:16:44.358Z,30.05
2022-09-01T04:19:27.315Z,30.07
2022-09-01T04:24:49.055Z,30.00
2022-09-01T04:27:23.450Z,29.99
2022-09-01T04:29:57.518Z,29.98
2022-09-01T04:32:29.286Z,30.01
2022-09-01T04:35:00.111Z,30.04
2022-09-01T04:37:30.021Z,30.03
2022-09-01T04:40:00.607Z,30.04
2022-09-01T04:45:11.320Z,30.06
2022-09-01T04:47:42.801Z,30.07
2022-09-01T04:50:18.676Z,30.08
2022-09-01T04:53:07.397Z,30.07
2022-09-01T04:55:49.916Z,30.06
2022-09-01T04:58:21.965Z,30.03
2022-09-01T05:03:39.699Z,30.02
2022-09-01T05:06:29.028Z,30.01
2022-09-01T05:09:02.198Z,30.00
2022-09-01T05:11:52.781Z,29.98
2022-09-01T05:14:29.551Z,29.98
2022-09-01T05:17:00.247Z,29.97
2022-09-01T05:19:30.722Z,29.94
2022-09-01T05:25:54.681Z,29.90
2022-09-01T05:28:25.311Z,29.86
2022-09-01T05:30:54.739Z,29.81
2022-09-01T05:33:22.674Z,29.82
2022-09-01T05:35:58.527Z,29.83
2022-09-01T05:38:28.046Z,29.79
2022-09-01T05:40:59.153Z,29.82
2022-09-01T05:48:19.041Z,29.78
2022-09-01T05:50:48.269Z,29.76
2022-09-01T05:53:18.841Z,29.72
2022-09-01T05:55:50.758Z,29.71
2022-09-01T05:58:21.626Z,29.72
2022-09-01T06:00:51.831Z,29.72
2022-09-01T06:03:22.140Z,29.70
2022-09-01T06:13:34.049Z,29.63
2022-09-01T06:16:03.040Z,29.59
2022-09-01T06:18:34.141Z,29.56
2022-09-01T06:21:05.114Z,29.58
2022-09-01T06:23:33.579Z,29.56
2022-09-01T06:26:01.597Z,29.56
2022-09-01T06:28:30.752Z,29.56
2022-09-01T06:36:03.879Z,29.54
2022-09-01T06:38:32.935Z,29.51
2022-09-01T06:41:10.506Z,29.51
2022-09-01T06:43:42.415Z,29.52
2022-09-01T06:46:10.162Z,29.49
2022-09-01T06:48:48.208Z,29.47
2022-09-01T06:51:22.688Z,29.46
2022-09-01T06:58:33.371Z,29.41
2022-09-01T07:01:19.585Z,29.42
2022-09-01T07:03:52.025Z,29.38
2022-09-01T07:09:47.661Z,29.28
2022-09-01T07:12:41.449Z,29.28
2022-09-01T07:16:31.917Z,29.23
2022-09-01T07:23:46.378Z,29.03
2022-09-01T07:26:26.489Z,29.05
2022-09-01T07:29:04.197Z,29.04
2022-09-01T07:34:39.795Z,28.98
2022-09-01T07:42:30.687Z,29.03
2022-09-01T07:42:56.885Z,29.00
2022-09-01T07:44:02.838Z,28.91
2022-09-01T07:47:19.480Z,28.94
2022-09-01T07:50:11.412Z,28.94
2022-09-01T07:52:31.442Z,28.91
2022-09-01T07:55:00.501Z,28.92
2022-09-01T07:57:29.856Z,28.94
2022-09-01T07:59:59.565Z,28.94
2022-09-01T08:07:54.254Z,28.93
2022-09-01T08:10:26.171Z,28.94
2022-09-01T08:12:58.796Z,28.93
2022-09-01T08:18:21.174Z,28.88
2022-09-01T08:20:50.025Z,28.90
2022-09-01T08:23:34.858Z,28.86
2022-09-01T08:31:25.125Z,28.85
2022-09-01T08:33:52.801Z,28.84
2022-09-01T08:36:23.960Z,28.81
2022-09-01T08:38:52.906Z,28.77
2022-09-01T08:41:39.177Z,28.78
2022-09-01T08:44:39.470Z,28.76
2022-09-01T08:47:28.716Z,28.74
2022-09-01T08:55:32.014Z,28.91
2022-09-01T08:58:01.272Z,28.77
2022-09-01T09:00:41.901Z,28.75
2022-09-01T09:03:40.450Z,28.73
2022-09-01T09:06:25.847Z,28.66
2022-09-01T09:09:11.311Z,28.56
2022-09-01T09:15:16.256Z,28.52
2022-09-01T09:18:00.290Z,28.53
2022-09-01T09:20:29.776Z,28.53
2022-09-01T09:22:59.851Z,28.49
2022-09-01T09:25:29.566Z,28.48
2022-09-01T09:28:01.836Z,28.48
2022-09-01T09:30:32.439Z,28.48
2022-09-01T09:41:25.684Z,28.42
2022-09-01T09:44:20.499Z,28.42
2022-09-01T09:46:50.340Z,28.39
2022-09-01T09:49:42.261Z,28.39
2022-09-01T09:52:19.656Z,28.36
2022-09-01T09:55:05.076Z,28.36
2022-09-01T09:57:39.542Z,28.32
2022-09-01T10:08:45.792Z,28.27
2022-09-01T10:11:35.420Z,28.25
2022-09-01T10:14:09.894Z,28.20
2022-09-01T10:16:42.384Z,28.14
2022-09-01T10:19:16.375Z,28.15
2022-09-01T10:21:48.662Z,28.15
2022-09-01T10:24:39.323Z,28.19
2022-09-01T10:33:19.128Z,28.20
2022-09-01T10:35:51.095Z,28.20
2022-09-01T10:38:25.915Z,28.18
2022-09-01T10:41:14.713Z,28.15
2022-09-01T10:43:45.045Z,28.11
2022-09-01T10:46:26.365Z,28.11
2022-09-01T10:49:04.346Z,28.08
2022-09-01T11:01:10.807Z,28.15
2022-09-01T11:03:52.723Z,28.17
2022-09-01T11:09:45.878Z,28.13
2022-09-01T11:12:16.309Z,28.12
2022-09-01T11:19:44.911Z,28.09
2022-09-01T11:22:43.914Z,28.13
2022-09-01T11:25:40.629Z,28.15
2022-09-01T11:28:31.606Z,28.18
2022-09-01T11:31:10.822Z,28.20
2022-09-01T11:34:00.665Z,28.25
2022-09-01T11:42:06.324Z,28.35
2022-09-01T11:44:49.849Z,28.40
2022-09-01T11:47:36.554Z,28.47
2022-09-01T11:50:20.772Z,28.52
2022-09-01T11:53:05.563Z,28.66
2022-09-01T11:55:36.538Z,28.75
2022-09-01T11:58:09.449Z,28.88
2022-09-01T12:00:43.034Z,29.01
2022-09-01T12:09:10.086Z,29.39
2022-09-01T12:11:41.673Z,29.50
2022-09-01T12:14:19.934Z,29.74
2022-09-01T12:17:01.518Z,29.96
2022-09-01T12:19:35.525Z,30.13
2022-09-01T12:22:14.717Z,30.22
2022-09-01T12:24:53.456Z,30.34
2022-09-01T12:30:14.481Z,30.69
2022-09-01T12:32:42.537Z,30.90
2022-09-01T12:35:35.945Z,31.15
2022-09-01T12:38:21.692Z,31.36
2022-09-01T12:40:56.481Z,31.54
2022-09-01T12:43:42.642Z,31.67
2022-09-01T12:46:11.028Z,31.77
2022-09-01T12:57:39.443Z,32.11
2022-09-01T13:00:12.313Z,32.35
2022-09-01T13:03:05.518Z,32.59
2022-09-01T13:05:41.582Z,32.78
2022-09-01T13:08:20.010Z,33.04
2022-09-01T13:10:54.559Z,33.22
2022-09-01T13:13:29.187Z,33.41
2022-09-01T13:24:34.317Z,34.31
2022-09-01T13:29:51.208Z,33.74
2022-09-01T13:32:24.282Z,33.31
2022-09-01T13:34:53.882Z,32.96
2022-09-01T13:37:22.130Z,32.68
2022-09-01T13:39:50.590Z,32.50
2022-09-01T13:42:20.697Z,32.44
2022-09-01T13:50:13.248Z,32.28
2022-09-01T13:52:43.811Z,32.27
2022-09-01T13:55:14.225Z,32.21
2022-09-01T13:57:41.772Z,32.23
2022-09-01T14:00:15.579Z,32.26
2022-09-01T14:02:51.804Z,32.32
2022-09-01T14:11:59.187Z,32.28
2022-09-01T14:14:26.705Z,32.24
2022-09-01T14:16:55.960Z,32.20
2022-09-01T14:19:24.477Z,32.22
2022-09-01T14:21:52.772Z,32.23
2022-09-01T14:24:20.710Z,32.17
2022-09-01T14:26:50.449Z,32.27
2022-09-01T14:34:35.462Z,33.76
2022-09-01T14:37:04.010Z,33.74
2022-09-01T14:39:31.370Z,33.60
2022-09-01T14:42:00.666Z,33.46
2022-09-01T14:44:31.406Z,33.23
2022-09-01T14:47:01.228Z,32.95
2022-09-01T14:49:33.417Z,32.70
2022-09-01T14:52:17.931Z,32.39
2022-09-01T14:59:51.347Z,31.86
2022-09-01T15:02:21.838Z,31.63
2022-09-01T15:04:51.455Z,31.11
2022-09-01T15:07:21.557Z,30.63
2022-09-01T15:09:51.142Z,30.10
2022-09-01T15:12:22.728Z,29.58
2022-09-01T15:14:51.418Z,29.18
2022-09-01T15:17:23.037Z,29.00
2022-09-01T15:24:21.134Z,28.78
2022-09-01T15:26:50.857Z,28.76
2022-09-01T15:29:20.269Z,28.69
2022-09-01T15:31:50.532Z,28.69
2022-09-01T15:34:20.213Z,28.69
2022-09-01T15:36:49.432Z,28.75
2022-09-01T15:39:16.801Z,28.80
2022-09-01T15:46:54.892Z,28.74
2022-09-01T15:49:22.687Z,29.14
2022-09-01T15:51:56.854Z,29.49
2022-09-01T15:54:30.332Z,29.74
2022-09-01T15:57:00.270Z,30.15
2022-09-01T15:59:29.509Z,30.28
2022-09-01T16:02:02.299Z,30.41
2022-09-01T16:04:34.402Z,30.60
2022-09-01T16:12:04.685Z,31.85
2022-09-01T16:14:32.246Z,31.83
2022-09-01T16:17:06.378Z,31.90
2022-09-01T16:19:45.877Z,32.05
2022-09-01T16:22:35.083Z,32.12
2022-09-01T16:25:12.033Z,32.47
2022-09-01T16:27:44.198Z,32.94
2022-09-01T16:38:41.097Z,34.94
2022-09-01T16:41:11.390Z,35.24
2022-09-01T16:43:50.761Z,35.50
2022-09-01T16:46:46.425Z,35.74
2022-09-01T16:49:22.845Z,36.08
2022-09-01T16:52:06.584Z,36.41
2022-09-01T16:54:51.153Z,36.70
2022-09-01T17:03:20.665Z,37.76
2022-09-01T17:06:02.036Z,37.63
2022-09-01T17:08:36.793Z,37.70
2022-09-01T17:11:22.436Z,38.01
2022-09-01T17:13:52.890Z,38.18
2022-09-01T17:16:30.951Z,38.20
2022-09-01T17:22:05.435Z,37.77
2022-09-01T17:24:42.661Z,37.39
2022-09-01T17:27:26.492Z,36.98
2022-09-01T17:29:57.062Z,36.62
2022-09-01T17:32:54.579Z,36.25
2022-09-01T17:35:37.241Z,35.81
2022-09-01T17:44:02.861Z,35.14
2022-09-01T17:47:13.099Z,35.05
2022-09-01T17:50:04.108Z,34.84
2022-09-01T17:52:43.238Z,34.55
2022-09-01T17:55:53.368Z,33.99
2022-09-01T17:58:32.206Z,33.27
2022-09-01T18:04:14.797Z,32.15
2022-09-01T18:06:54.099Z,31.88
2022-09-01T18:09:25.801Z,31.65
2022-09-01T18:12:00.930Z,31.53
2022-09-01T18:14:37.261Z,31.49
2022-09-01T18:17:20.368Z,31.40
2022-09-01T18:20:03.320Z,31.36
2022-09-01T18:31:31.163Z,31.94
2022-09-01T18:34:13.745Z,32.07
2022-09-01T18:37:01.046Z,32.19
2022-09-01T18:39:48.049Z,32.26
2022-09-01T18:42:42.080Z,32.27
2022-09-01T18:45:35.958Z,32.37
2022-09-01T18:57:01.222Z,33.44
2022-09-01T18:59:36.994Z,33.95
2022-09-01T19:02:24.030Z,34.14
2022-09-01T19:05:21.122Z,34.28
2022-09-01T19:08:11.001Z,34.56
2022-09-01T19:10:51.271Z,34.50
2022-09-01T19:16:46.759Z,34.15
2022-09-01T19:19:31.046Z,33.97
2022-09-01T19:21:59.681Z,33.79
2022-09-01T19:24:43.615Z,33.73
2022-09-01T19:27:15.530Z,33.62
2022-09-01T19:30:05.804Z,33.53
2022-09-01T19:32:36.278Z,33.44
2022-09-01T19:38:06.384Z,33.28
2022-09-01T19:40:37.534Z,33.24
2022-09-01T19:43:13.288Z,33.14
2022-09-01T19:46:12.175Z,32.99
2022-09-01T19:48:50.466Z,32.85
2022-09-01T19:51:50.556Z,32.77
2022-09-01T19:54:27.615Z,32.63
2022-09-01T20:03:10.905Z,32.49
2022-09-01T20:05:57.114Z,32.47
2022-09-01T20:08:51.021Z,32.49
2022-09-01T20:11:34.886Z,32.52
2022-09-01T20:14:26.071Z,32.44
2022-09-01T20:16:57.757Z,32.43
2022-09-01T20:19:52.303Z,32.44
2022-09-01T20:28:10.321Z,33.01
2022-09-01T20:30:52.190Z,33.19
2022-09-01T20:33:45.582Z,33.42
2022-09-01T20:36:25.219Z,33.52
2022-09-01T20:39:31.083Z,33.54
2022-09-01T20:42:10.963Z,33.45
2022-09-01T20:44:48.039Z,33.33
2022-09-01T20:52:23.585Z,33.07
2022-09-01T20:55:31.814Z,32.97
2022-09-01T20:58:21.690Z,32.81
2022-09-01T21:01:17.489Z,32.71
2022-09-01T21:03:57.020Z,32.61
2022-09-01T21:06:43.746Z,32.51
2022-09-01T21:18:30.467Z,32.58
2022-09-01T21:21:03.083Z,32.91
2022-09-01T21:23:32.285Z,33.24
2022-09-01T21:26:04.826Z,33.46
2022-09-01T21:28:33.523Z,33.66
2022-09-01T21:31:02.525Z,33.91
2022-09-01T21:33:32.857Z,34.00
2022-09-01T21:44:31.902Z,33.66
2022-09-01T21:47:01.031Z,33.53
2022-09-01T21:49:28.674Z,33.48
2022-09-01T21:52:01.489Z,33.42
2022-09-01T21:54:30.997Z,33.41
2022-09-01T21:56:58.647Z,33.40
2022-09-01T21:59:27.468Z,33.41
2022-09-01T22:09:43.544Z,33.28
2022-09-01T22:12:12.657Z,33.19
2022-09-01T22:14:41.819Z,33.19
2022-09-01T22:17:11.417Z,33.22
2022-09-01T22:19:41.648Z,33.20
2022-09-01T22:22:12.563Z,33.15
2022-09-01T22:24:43.570Z,33.12
2022-09-01T22:29:54.738Z,32.96
2022-09-01T22:32:23.010Z,32.94
2022-09-01T22:34:52.200Z,32.94
2022-09-01T22:37:21.861Z,32.84
2022-09-01T22:39:50.805Z,32.74
2022-09-01T22:42:18.143Z,32.66
2022-09-01T22:44:47.027Z,32.63
2022-09-01T22:47:14.854Z,32.59
2022-09-01T22:57:12.471Z,32.21
2022-09-01T22:59:42.234Z,32.15
2022-09-01T23:02:14.811Z,32.08
2022-09-01T23:04:42.501Z,32.04
2022-09-01T23:07:11.521Z,31.99
2022-09-01T23:09:40.292Z,31.96
2022-09-01T23:12:07.768Z,31.88
2022-09-01T23:17:12.537Z,31.71
2022-09-01T23:19:41.805Z,31.69
2022-09-01T23:22:13.542Z,31.68
2022-09-01T23:24:44.209Z,31.66
2022-09-01T23:27:12.491Z,31.63
2022-09-01T23:29:41.734Z,31.62
2022-09-01T23:32:11.001Z,31.57
2022-09-01T23:39:24.696Z,31.92
2022-09-01T23:41:52.176Z,31.76
2022-09-01T23:44:21.132Z,31.71
2022-09-01T23:46:48.931Z,31.69
2022-09-01T23:49:20.863Z,31.66
2022-09-01T23:51:48.817Z,31.60
2022-09-01T23:54:17.946Z,31.56
2022-09-01T23:56:46.512Z,31.54
